Time;durP1;ratioP1;P1;durP2;ratioP2;P2;SDS_P1;SDS_P2;PMS_P1;PMS_P2;Temp;Humidity;BMP_temperature;BMP_pressure;BME280_temperature;BME280_humidity;BME280_pressure;Samples;Min_cycle;Max_cycle;Signal;HPM_P1;HPM_P2
2022/03/12 00:00:30;;;;;;;16.45;8.73;;;;;;;9.94;46.73;101015.47;5054822;28;20422;-80
2022/03/12 00:02:57;;;;;;;16.17;9.20;;;;;;;9.90;47.13;101022.16;5052986;28;20021;-78
2022/03/12 00:05:27;;;;;;;16.50;8.85;;;;;;;9.91;46.69;101009.34;5054852;28;20469;-79
2022/03/12 00:07:53;;;;;;;17.17;9.77;;;;;;;9.97;46.50;101022.59;5045326;28;20052;-79
2022/03/12 00:10:21;;;;;;;15.55;8.65;;;;;;;9.98;47.04;101016.09;5055065;28;20033;-78
2022/03/12 00:12:46;;;;;;;19.40;9.18;;;;;;;9.93;47.39;101019.19;5053640;28;20029;-78
2022/03/12 00:15:14;;;;;;;18.85;8.88;;;;;;;9.91;47.27;101012.94;5055642;28;20040;-78
2022/03/12 00:17:45;;;;;;;17.02;9.07;;;;;;;9.98;47.01;101018.84;5037961;28;20021;-79
2022/03/12 00:20:16;;;;;;;18.65;8.88;;;;;;;9.94;48.04;101026.41;5037298;28;20061;-79
2022/03/12 00:22:47;;;;;;;15.82;8.52;;;;;;;9.92;48.32;101031.13;5052215;28;20024;-79
2022/03/12 00:25:27;;;;;;;19.33;8.93;;;;;;;9.87;48.70;101030.59;5037681;28;20511;-79
2022/03/12 00:27:53;;;;;;;16.75;9.50;;;;;;;9.90;47.80;101027.63;5060750;28;20143;-79
2022/03/12 00:30:22;;;;;;;16.17;8.65;;;;;;;9.96;47.64;101030.91;5053804;28;20041;-78
2022/03/12 00:32:48;;;;;;;28.77;9.45;;;;;;;9.90;47.54;101027.63;5068930;28;20041;-78
2022/03/12 00:35:15;;;;;;;15.20;8.35;;;;;;;9.95;47.64;101027.28;5070557;28;20093;-79
2022/03/12 00:37:41;;;;;;;16.90;9.40;;;;;;;10.00;47.75;101041.50;5064298;28;20048;-79
2022/03/12 00:40:07;;;;;;;16.55;8.43;;;;;;;9.97;48.00;101040.84;5053313;28;20029;-79
2022/03/12 00:42:32;;;;;;;19.13;9.48;;;;;;;9.94;48.01;101041.94;5052635;28;20473;-79
2022/03/12 00:44:58;;;;;;;14.68;9.13;;;;;;;9.91;47.86;101029.38;5045873;28;20034;-80
2022/03/12 00:47:24;;;;;;;17.83;8.93;;;;;;;9.90;48.39;101045.88;5033812;28;20035;-78
2022/03/12 00:49:50;;;;;;;18.52;8.55;;;;;;;9.88;48.80;101045.13;5066979;28;20472;-80
2022/03/12 00:52:16;;;;;;;14.90;8.77;;;;;;;9.87;48.77;101049.72;5049088;28;20095;-78
2022/03/12 00:54:42;;;;;;;18.67;8.93;;;;;;;9.84;48.75;101040.84;5052512;28;20060;-79
2022/03/12 00:57:11;;;;;;;20.48;8.68;;;;;;;9.90;48.67;101044.03;5069075;28;20037;-78
2022/03/12 00:59:40;;;;;;;18.35;8.43;;;;;;;9.92;48.34;101049.41;5035963;28;20096;-80
2022/03/12 01:02:08;;;;;;;18.42;9.20;;;;;;;9.82;49.38;101051.94;5050901;28;20503;-80
2022/03/12 01:04:33;;;;;;;17.42;8.77;;;;;;;9.84;49.26;101040.84;5070584;28;20052;-79
2022/03/12 01:06:59;;;;;;;16.65;9.00;;;;;;;9.81;49.31;101049.31;5050235;28;20056;-79
2022/03/12 01:09:24;;;;;;;18.85;9.30;;;;;;;9.81;49.54;101046.56;5052520;28;20668;-80
2022/03/12 01:11:50;;;;;;;18.65;9.23;;;;;;;9.83;49.47;101045.47;5036830;28;20032;-79
2022/03/12 01:14:16;;;;;;;20.45;10.15;;;;;;;9.71;49.81;101035.44;5053230;28;20467;-79
2022/03/12 01:16:41;;;;;;;17.98;10.63;;;;;;;9.84;49.49;101057.25;5053033;28;20044;-80
2022/03/12 01:19:07;;;;;;;17.20;8.73;;;;;;;9.77;49.54;101058.72;5052797;28;20036;-80
2022/03/12 01:21:33;;;;;;;16.40;8.95;;;;;;;9.80;48.99;101053.03;5056934;28;20499;-79
2022/03/12 01:23:59;;;;;;;24.95;9.57;;;;;;;9.72;49.40;101053.56;5070131;28;20060;-79
2022/03/12 01:26:25;;;;;;;18.42;9.65;;;;;;;9.70;49.31;101053.69;5057690;28;20111;-80
2022/03/12 01:28:50;;;;;;;18.50;8.98;;;;;;;9.67;49.17;101056.63;5030162;28;20084;-79
2022/03/12 01:31:16;;;;;;;19.00;7.82;;;;;;;9.75;48.82;101058.81;5056249;28;20056;-80
2022/03/12 01:33:42;;;;;;;21.10;10.30;;;;;;;9.66;49.18;101057.63;5057714;28;20033;-80
2022/03/12 01:36:08;;;;;;;15.45;8.18;;;;;;;9.65;49.46;101047.66;5048722;28;20029;-79
2022/03/12 01:38:46;;;;;;;33.90;8.52;;;;;;;9.65;50.08;101063.22;5058739;28;20048;-79
2022/03/12 01:41:11;;;;;;;18.65;8.50;;;;;;;9.61;50.04;101058.94;5053167;28;20034;-79
2022/03/12 01:43:37;;;;;;;21.17;9.25;;;;;;;9.63;50.06;101073.38;5072690;28;20127;-80
2022/03/12 01:46:09;;;;;;;18.83;8.93;;;;;;;9.53;51.15;101054.03;5053397;28;20389;-78
2022/03/12 01:48:36;;;;;;;24.80;10.00;;;;;;;9.56;51.66;101075.69;5047720;28;20021;-79
2022/03/12 01:51:02;;;;;;;16.83;8.55;;;;;;;9.42;54.54;101075.78;5058211;28;20025;-78
2022/03/12 01:53:27;;;;;;;15.77;9.02;;;;;;;9.33;56.28;101070.00;5069762;28;20045;-81
2022/03/12 01:55:54;;;;;;;25.25;8.45;;;;;;;9.25;56.68;101072.38;5057627;28;20485;-78
2022/03/12 01:58:20;;;;;;;14.40;8.60;;;;;;;9.19;57.47;101073.69;5056965;28;20037;-79
2022/03/12 02:00:49;;;;;;;18.65;8.85;;;;;;;9.14;58.50;101077.72;5057384;28;20047;-79
2022/03/12 02:03:18;;;;;;;16.30;9.30;;;;;;;9.16;58.51;101076.63;5040073;28;20431;-79
2022/03/12 02:05:44;;;;;;;19.40;8.30;;;;;;;9.15;57.68;101069.44;5059634;28;20033;-79
2022/03/12 02:08:14;;;;;;;18.30;8.70;;;;;;;9.17;57.29;101069.31;5072181;28;20056;-80
2022/03/12 02:10:45;;;;;;;17.60;9.07;;;;;;;9.17;56.08;101059.25;5052037;28;20550;-78
2022/03/12 02:13:11;;;;;;;17.30;9.13;;;;;;;9.16;57.12;101059.38;5074335;28;20151;-79
2022/03/12 02:15:36;;;;;;;17.88;8.63;;;;;;;9.14;58.24;101058.59;5053648;28;20072;-79
2022/03/12 02:18:03;;;;;;;19.63;8.63;;;;;;;9.11;57.60;101054.22;5055009;28;20091;-79
2022/03/12 02:20:29;;;;;;;18.55;8.55;;;;;;;9.17;57.44;101066.59;5055188;28;20045;-79
2022/03/12 02:22:55;;;;;;;19.85;8.80;;;;;;;9.17;57.91;101063.84;5072141;28;20079;-79
2022/03/12 02:25:32;;;;;;;15.57;8.88;;;;;;;9.16;57.41;101071.16;5038945;28;20044;-79
2022/03/12 02:27:59;;;;;;;14.90;8.23;;;;;;;9.15;57.18;101069.44;5051962;28;20033;-79
2022/03/12 02:30:44;;;;;;;14.90;8.35;;;;;;;9.12;57.16;101066.03;5039835;28;20029;-79
2022/03/12 02:33:13;;;;;;;18.15;9.10;;;;;;;9.07;57.64;101060.91;5039951;28;20033;-77
2022/03/12 02:35:38;;;;;;;15.82;8.73;;;;;;;9.06;59.16;101071.94;5057166;28;20449;-79
2022/03/12 02:38:07;;;;;;;17.30;9.13;;;;;;;9.04;58.01;101074.75;5046250;28;20115;-79
2022/03/12 02:40:33;;;;;;;25.70;9.85;;;;;;;9.05;58.34;101073.78;5073013;28;20052;-80
2022/03/12 02:43:00;;;;;;;18.13;8.98;;;;;;;8.95;60.23;101075.38;5048418;28;20049;-79
2022/03/12 02:45:30;;;;;;;19.05;8.65;;;;;;;9.07;58.82;101079.13;5055311;28;20037;-79
2022/03/12 02:47:56;;;;;;;15.50;9.13;;;;;;;8.95;60.33;101064.47;5056718;28;20044;-79
2022/03/12 02:50:23;;;;;;;22.20;10.15;;;;;;;9.01;59.53;101069.50;5055070;28;20079;-79
2022/03/12 02:52:49;;;;;;;16.63;9.52;;;;;;;8.99;60.58;101066.88;5069654;28;20026;-79
2022/03/12 02:55:23;;;;;;;23.85;9.82;;;;;;;9.06;59.07;101070.06;5054297;28;20098;-78
2022/03/12 02:57:50;;;;;;;26.23;9.52;;;;;;;9.04;59.83;101073.91;5055416;28;20111;-78
2022/03/12 03:00:17;;;;;;;18.20;9.43;;;;;;;8.98;60.10;101078.78;5068885;28;20452;-78
2022/03/12 03:02:52;;;;;;;20.02;8.77;;;;;;;9.05;60.10;101078.34;5053973;28;20036;-78
2022/03/12 03:05:21;;;;;;;18.15;9.07;;;;;;;9.00;61.51;101086.84;5037071;28;20112;-79
2022/03/12 03:07:48;;;;;;;29.10;9.55;;;;;;;8.95;61.93;101081.75;5055421;28;20149;-79
2022/03/12 03:10:31;;;;;;;18.88;9.85;;;;;;;8.95;62.49;101092.66;5054879;28;20378;-79
2022/03/12 03:12:58;;;;;;;;;;;;;;;9.02;62.27;101096.72;5058544;28;20083;-79
2022/03/12 03:15:25;;;;;;;16.80;8.45;;;;;;;8.95;63.07;101092.66;5055677;28;19921;-79
2022/03/12 03:17:51;;;;;;;18.08;9.88;;;;;;;8.96;63.40;101088.94;5070892;28;20045;-79
2022/03/12 03:20:17;;;;;;;16.88;9.95;;;;;;;8.94;64.03;101082.72;5060000;28;20113;-80
2022/03/12 03:22:42;;;;;;;20.67;9.55;;;;;;;9.08;63.78;101095.41;5056064;28;20110;-78
2022/03/12 03:25:08;;;;;;;19.48;9.80;;;;;;;9.01;64.50;101088.63;5052827;28;20461;-79
2022/03/12 03:27:33;;;;;;;17.73;9.45;;;;;;;9.07;64.62;101084.56;5058449;28;20040;-78
2022/03/12 03:29:59;;;;;;;19.52;9.38;;;;;;;9.06;64.69;101089.19;5055596;28;20044;-79
2022/03/12 03:32:24;;;;;;;19.25;9.55;;;;;;;9.07;65.22;101099.13;5039678;28;20122;-79
2022/03/12 03:34:50;;;;;;;21.95;9.88;;;;;;;9.10;65.83;101093.47;5056922;28;20031;-79
2022/03/12 03:37:15;;;;;;;19.58;10.05;;;;;;;8.98;66.96;101102.47;5057369;28;20053;-79
2022/03/12 03:39:41;;;;;;;22.33;10.27;;;;;;;9.02;66.99;101106.78;5036894;28;20025;-79
2022/03/12 03:42:07;;;;;;;19.70;9.65;;;;;;;9.08;66.52;101103.59;5036873;28;20082;-79
2022/03/12 03:44:32;;;;;;;21.50;8.98;;;;;;;9.03;67.39;101092.13;5054291;28;20036;-79
2022/03/12 03:46:58;;;;;;;22.88;9.60;;;;;;;9.00;67.75;101105.97;5052293;28;20114;-79
2022/03/12 03:49:24;;;;;;;19.83;9.07;;;;;;;8.89;68.79;101106.72;5051437;28;20492;-79
2022/03/12 03:51:51;;;;;;;19.90;9.38;;;;;;;8.80;68.72;101105.47;5054621;28;20144;-79
2022/03/12 03:54:16;;;;;;;25.73;9.77;;;;;;;8.81;69.80;101111.84;5054105;28;20056;-78
2022/03/12 03:56:42;;;;;;;17.98;10.18;;;;;;;8.72;70.77;101115.19;5053175;28;20106;-79
2022/03/12 03:59:08;;;;;;;17.80;10.10;;;;;;;8.61;71.49;101121.38;5053799;28;20117;-79
2022/03/12 04:01:39;;;;;;;15.45;9.07;;;;;;;8.63;71.32;101133.06;5054282;28;20468;-79
2022/03/12 04:04:05;;;;;;;17.77;9.48;;;;;;;8.56;72.55;101126.22;5030841;28;20123;-79
2022/03/12 04:06:31;;;;;;;17.05;9.30;;;;;;;8.46;73.08;101115.06;5038346;28;20059;-79
2022/03/12 04:08:56;;;;;;;18.13;9.30;;;;;;;8.44;73.29;101122.47;5052368;28;20126;-79
2022/03/12 04:11:24;;;;;;;18.52;10.18;;;;;;;8.43;74.06;101132.53;5049439;28;20028;-80
2022/03/12 04:13:52;;;;;;;21.15;9.88;;;;;;;8.32;74.69;101131.44;5052471;28;20540;-79
2022/03/12 04:16:19;;;;;;;15.57;9.20;;;;;;;8.27;75.44;101135.34;5053760;28;20387;-79
2022/03/12 04:18:48;;;;;;;21.10;9.75;;;;;;;8.20;76.26;101135.81;5048616;28;20454;-79
2022/03/12 04:21:16;;;;;;;17.33;10.18;;;;;;;8.04;77.45;101125.03;5046354;28;20048;-79
2022/03/12 04:23:46;;;;;;;17.52;9.40;;;;;;;8.09;77.55;101133.81;5055310;28;20025;-79
2022/03/12 04:26:13;;;;;;;14.10;9.02;;;;;;;8.08;77.99;101140.22;5042171;28;20029;-79
2022/03/12 04:28:39;;;;;;;16.70;9.43;;;;;;;8.06;78.26;101129.41;5037778;28;20036;-79
2022/03/12 04:31:07;;;;;;;19.45;8.90;;;;;;;7.99;78.94;101151.75;5053263;28;20464;-79
2022/03/12 04:33:33;;;;;;;20.15;9.80;;;;;;;7.92;79.77;101148.53;5055059;28;20032;-77
2022/03/12 04:36:01;;;;;;;20.85;9.57;;;;;;;7.90;79.65;101156.81;5051522;28;20107;-78
2022/03/12 04:38:27;;;;;;;21.05;9.23;;;;;;;7.89;80.17;101148.72;5052890;28;20033;-77
2022/03/12 04:40:55;;;;;;;19.10;9.20;;;;;;;7.86;80.97;101162.53;5054071;28;20456;-78
2022/03/12 04:43:21;;;;;;;16.83;9.80;;;;;;;7.79;81.43;101151.16;5036702;28;21882;-79
2022/03/12 04:45:47;;;;;;;21.90;9.43;;;;;;;7.76;82.21;101150.47;5054985;28;20025;-79
2022/03/12 04:48:15;;;;;;;18.38;9.90;;;;;;;7.76;82.98;101153.19;5055331;28;20037;-79
2022/03/12 04:50:41;;;;;;;15.73;9.77;;;;;;;7.68;83.40;101150.94;5066976;28;20029;-79
2022/03/12 04:53:08;;;;;;;22.38;10.10;;;;;;;7.64;84.49;101160.25;5050002;28;20040;-79
2022/03/12 04:55:36;;;;;;;20.98;9.63;;;;;;;7.69;84.36;101152.66;5055111;28;20032;-79
2022/03/12 04:58:04;;;;;;;20.38;9.65;;;;;;;7.67;85.93;101162.78;5060189;28;20029;-80
2022/03/12 05:00:31;;;;;;;14.82;9.65;;;;;;;7.72;85.86;101168.84;5052558;28;20056;-79
2022/03/12 05:03:25;;;;;;;17.35;9.88;;;;;;;7.65;86.46;101159.31;5053166;28;20040;-79
2022/03/12 05:05:51;;;;;;;;;;;;;;;7.65;87.88;101171.06;5046998;28;20086;-79
2022/03/12 05:08:22;;;;;;;16.27;9.73;;;;;;;7.63;88.41;101177.59;5046854;28;20301;-79
2022/03/12 05:10:51;;;;;;;17.15;9.38;;;;;;;7.63;89.76;101180.31;5048378;28;20033;-79
2022/03/12 05:13:27;;;;;;;26.98;9.38;;;;;;;7.63;90.12;101174.88;5037795;28;20041;-78
2022/03/12 05:15:55;;;;;;;19.67;10.30;;;;;;;7.62;91.21;101173.97;5049400;28;20051;-79
2022/03/12 05:18:23;;;;;;;17.42;9.98;;;;;;;7.61;92.12;101182.25;5056075;28;20119;-78
2022/03/12 05:20:49;;;;;;;25.70;11.10;;;;;;;7.55;93.03;101184.38;5062463;28;20043;-80
2022/03/12 05:23:17;;;;;;;18.75;9.45;;;;;;;7.50;94.52;101181.06;5042007;28;20028;-77
2022/03/12 05:25:44;;;;;;;27.52;13.32;;;;;;;7.39;94.81;101169.06;5055949;28;20124;-78
2022/03/12 05:28:15;;;;;;;19.98;11.68;;;;;;;7.38;96.47;101179.09;5050688;28;20077;-78
2022/03/12 05:30:45;;;;;;;19.73;10.88;;;;;;;7.32;96.71;101184.91;5053061;28;20413;-80
2022/03/12 05:33:16;;;;;;;20.55;10.75;;;;;;;7.29;97.49;101190.53;5061734;28;20048;-79
2022/03/12 05:35:44;;;;;;;24.63;14.38;;;;;;;7.28;97.85;101189.69;5053571;28;20384;-78
2022/03/12 05:38:11;;;;;;;37.55;18.83;;;;;;;7.20;98.42;101180.19;5055421;28;20607;-79
2022/03/12 05:40:40;;;;;;;28.80;15.40;;;;;;;7.18;98.83;101191.16;5069792;28;20045;-79
2022/03/12 05:43:15;;;;;;;27.95;14.38;;;;;;;7.21;98.96;101193.72;5039318;28;20036;-79
2022/03/12 05:45:45;;;;;;;16.55;9.90;;;;;;;7.23;98.92;101183.63;5054107;28;20037;-79
2022/03/12 05:48:11;;;;;;;24.23;11.23;;;;;;;7.21;99.85;101198.28;5070032;28;20971;-79
2022/03/12 05:50:37;;;;;;;22.25;9.63;;;;;;;7.15;99.96;101188.66;5052145;28;20055;-79
2022/03/12 05:53:08;;;;;;;16.25;9.35;;;;;;;7.28;100.00;101188.78;5053388;28;20503;-81
2022/03/12 05:55:35;;;;;;;18.13;9.85;;;;;;;7.35;100.00;101190.19;5054849;28;20029;-78
2022/03/12 05:58:00;;;;;;;15.52;8.82;;;;;;;7.38;100.00;101195.44;5055878;28;20506;-79
2022/03/12 06:00:25;;;;;;;23.77;9.15;;;;;;;7.41;100.00;101197.09;5056120;28;20032;-79
2022/03/12 06:02:52;;;;;;;17.27;9.65;;;;;;;7.35;100.00;101182.88;5038731;28;20400;-79
2022/03/12 06:05:19;;;;;;;14.43;8.13;;;;;;;7.48;100.00;101199.34;5048351;28;20918;-80
2022/03/12 06:07:46;;;;;;;15.38;8.75;;;;;;;7.49;100.00;101195.69;5058010;28;20045;-79
2022/03/12 06:10:17;;;;;;;15.45;8.73;;;;;;;7.51;100.00;101210.06;5053248;28;20071;-80
2022/03/12 06:12:43;;;;;;;16.90;9.02;;;;;;;7.52;100.00;101210.94;5074055;28;20129;-79
2022/03/12 06:15:11;;;;;;;19.05;8.82;;;;;;;7.54;100.00;101215.34;5068322;28;20158;-78
2022/03/12 06:17:38;;;;;;;17.40;8.85;;;;;;;7.55;100.00;101214.34;5039663;28;20469;-78
2022/03/12 06:20:04;;;;;;;19.98;9.48;;;;;;;7.60;100.00;101233.16;5056247;28;20260;-78
2022/03/12 06:22:30;;;;;;;17.23;9.35;;;;;;;7.54;100.00;101226.25;5051185;28;20103;-79
2022/03/12 06:24:55;;;;;;;19.33;9.98;;;;;;;7.59;100.00;101212.34;5060186;28;20507;-78
2022/03/12 06:27:22;;;;;;;24.27;9.70;;;;;;;7.64;100.00;101228.38;5057965;28;20033;-78
2022/03/12 06:29:47;;;;;;;19.30;8.85;;;;;;;7.63;100.00;101232.97;5049738;28;20036;-78
2022/03/12 06:32:14;;;;;;;16.33;8.73;;;;;;;7.63;100.00;101227.53;5058699;28;20037;-79
2022/03/12 06:34:43;;;;;;;20.48;9.57;;;;;;;7.70;100.00;101233.47;5059834;28;20037;-79
2022/03/12 06:37:09;;;;;;;14.85;8.98;;;;;;;7.68;100.00;101247.19;5073242;28;20029;-80
2022/03/12 06:39:35;;;;;;;17.75;9.77;;;;;;;7.65;100.00;101241.91;5058946;28;20059;-80
2022/03/12 06:42:02;;;;;;;19.23;9.38;;;;;;;7.70;100.00;101239.78;5053234;28;20465;-79
2022/03/12 06:44:32;;;;;;;19.05;9.70;;;;;;;7.79;100.00;101241.09;5041591;28;20025;-78
2022/03/12 06:47:02;;;;;;;16.00;9.73;;;;;;;7.80;100.00;101234.66;5060625;28;20036;-79
2022/03/12 06:49:28;;;;;;;21.00;9.30;;;;;;;7.82;100.00;101246.38;5058392;28;20056;-79
2022/03/12 06:51:54;;;;;;;19.50;9.90;;;;;;;7.85;100.00;101246.16;5067168;28;20037;-78
2022/03/12 06:54:20;;;;;;;22.77;10.10;;;;;;;7.85;100.00;101246.16;5056383;28;20033;-79
2022/03/12 06:56:46;;;;;;;21.48;9.88;;;;;;;7.89;100.00;101250.47;5050004;28;20100;-79
2022/03/12 06:59:12;;;;;;;20.85;10.98;;;;;;;7.96;100.00;101252.81;5053528;28;20072;-79
2022/03/12 07:01:38;;;;;;;21.75;11.35;;;;;;;7.97;100.00;101262.72;5038633;28;20040;-78
2022/03/12 07:04:04;;;;;;;27.98;11.13;;;;;;;8.02;100.00;101263.34;5056026;28;20124;-79
2022/03/12 07:06:29;;;;;;;25.10;12.20;;;;;;;8.13;100.00;101255.34;5055021;28;20029;-78
2022/03/12 07:08:54;;;;;;;22.98;10.80;;;;;;;8.07;100.00;101245.72;5054593;28;20036;-77
2022/03/12 07:11:20;;;;;;;28.38;11.13;;;;;;;8.23;100.00;101259.28;5057024;28;20044;-78
2022/03/12 07:13:47;;;;;;;27.10;11.38;;;;;;;8.34;100.00;101260.44;5059699;28;20040;-78
2022/03/12 07:16:12;;;;;;;25.23;11.68;;;;;;;8.41;100.00;101253.59;5032341;28;20037;-78
2022/03/12 07:18:40;;;;;;;28.02;11.25;;;;;;;8.46;100.00;101262.41;5053701;28;20541;-78
2022/03/12 07:21:07;;;;;;;24.83;11.82;;;;;;;8.58;100.00;101263.50;5053723;28;20503;-79
2022/03/12 07:23:34;;;;;;;23.98;11.90;;;;;;;8.71;100.00;101264.44;5065357;28;20037;-79
2022/03/12 07:26:00;;;;;;;33.17;13.05;;;;;;;8.81;100.00;101256.53;5033162;28;20033;-77
2022/03/12 07:28:27;;;;;;;30.73;12.88;;;;;;;8.91;100.00;101263.16;5048433;28;20183;-78
2022/03/12 07:30:53;;;;;;;29.13;13.18;;;;;;;9.06;100.00;101255.78;5057903;28;20060;-77
2022/03/12 07:33:19;;;;;;;34.83;14.20;;;;;;;9.16;100.00;101253.31;5038737;28;20508;-78
2022/03/12 07:35:45;;;;;;;39.88;15.07;;;;;;;9.31;100.00;101259.63;5041638;28;20037;-78
2022/03/12 07:38:11;;;;;;;38.90;16.02;;;;;;;9.34;100.00;101254.81;5043652;28;20041;-79
2022/03/12 07:40:37;;;;;;;43.75;15.93;;;;;;;9.61;100.00;101269.44;5059380;28;20107;-79
2022/03/12 07:43:03;;;;;;;48.03;16.35;;;;;;;9.64;100.00;101270.13;5060021;28;20063;-80
2022/03/12 07:45:30;;;;;;;42.53;17.80;;;;;;;9.65;100.00;101273.72;5055896;28;20045;-80
2022/03/12 07:47:55;;;;;;;43.10;16.50;;;;;;;9.81;100.00;101273.56;5057245;28;20078;-79
2022/03/12 07:50:22;;;;;;;38.22;16.48;;;;;;;9.84;100.00;101282.41;5054279;28;20022;-79
2022/03/12 07:52:47;;;;;;;39.25;15.93;;;;;;;9.89;100.00;101279.38;5038641;28;20078;-77
2022/03/12 07:55:13;;;;;;;41.42;16.67;;;;;;;9.94;100.00;101291.72;5040569;28;20049;-79
2022/03/12 07:57:41;;;;;;;32.97;14.50;;;;;;;10.03;100.00;101303.00;5057483;28;20052;-81
2022/03/12 08:00:09;;;;;;;41.13;13.68;;;;;;;10.04;100.00;101311.13;5064891;28;20060;-80
2022/03/12 08:02:35;;;;;;;30.00;12.52;;;;;;;9.98;100.00;101311.53;5054192;28;20480;-78
2022/03/12 08:05:01;;;;;;;24.85;11.98;;;;;;;9.94;100.00;101316.34;5055244;28;20033;-79
2022/03/12 08:07:28;;;;;;;22.88;11.02;;;;;;;9.95;100.00;101319.94;5056315;28;20072;-79
2022/03/12 08:09:59;;;;;;;19.60;9.98;;;;;;;10.15;100.00;101321.31;5057173;28;20040;-78
2022/03/12 08:12:32;;;;;;;14.73;8.30;;;;;;;10.25;100.00;101322.41;5040162;28;20400;-78
2022/03/12 08:14:58;;;;;;;13.05;7.00;;;;;;;10.31;100.00;101323.84;5057119;28;20037;-79
2022/03/12 08:17:25;;;;;;;25.00;10.77;;;;;;;10.33;100.00;101324.66;5056689;28;20033;-76
2022/03/12 08:19:51;;;;;;;15.52;7.97;;;;;;;10.38;100.00;101330.69;5056183;28;20056;-78
2022/03/12 08:22:17;;;;;;;21.42;9.80;;;;;;;10.36;100.00;101327.16;5057394;28;20707;-79
2022/03/12 08:24:43;;;;;;;11.05;7.00;;;;;;;10.47;100.00;101330.00;5057493;28;20045;-78
2022/03/12 08:27:14;;;;;;;9.40;5.25;;;;;;;10.57;100.00;101334.84;5056444;28;20032;-78
2022/03/12 08:29:41;;;;;;;10.48;6.07;;;;;;;10.60;100.00;101345.56;5057611;28;20044;-80
2022/03/12 08:32:08;;;;;;;11.68;6.07;;;;;;;10.89;100.00;101335.25;5039652;28;20035;-78
2022/03/12 08:34:34;;;;;;;8.57;5.85;;;;;;;11.01;100.00;101328.88;5056990;28;20040;-79
2022/03/12 08:37:01;;;;;;;9.55;5.72;;;;;;;11.04;100.00;101344.22;5062135;28;20033;-80
2022/03/12 08:39:27;;;;;;;8.32;5.18;;;;;;;11.31;100.00;101343.16;5055474;28;20037;-80
2022/03/12 08:41:52;;;;;;;10.38;5.43;;;;;;;11.57;100.00;101344.81;5057214;28;20049;-79
2022/03/12 08:44:18;;;;;;;7.00;5.05;;;;;;;11.65;99.39;101357.94;5054913;28;20111;-79
2022/03/12 08:46:45;;;;;;;6.40;5.20;;;;;;;11.68;98.58;101356.84;5045019;28;20546;-79
2022/03/12 08:49:11;;;;;;;8.27;5.32;;;;;;;11.68;99.51;101365.09;5057259;28;20127;-79
2022/03/12 08:51:38;;;;;;;8.40;5.53;;;;;;;12.18;96.52;101359.47;5062558;28;20037;-80
2022/03/12 08:54:05;;;;;;;11.82;5.50;;;;;;;12.00;96.28;101365.38;5036230;28;20416;-79
2022/03/12 08:56:31;;;;;;;9.70;5.45;;;;;;;11.99;96.92;101365.53;5049740;28;20087;-80
2022/03/12 08:58:57;;;;;;;8.32;4.97;;;;;;;11.68;97.57;101368.69;5055820;28;20051;-77
2022/03/12 09:01:24;;;;;;;11.02;5.00;;;;;;;12.04;96.43;101364.16;5049826;28;20096;-77
2022/03/12 09:03:49;;;;;;;9.93;5.25;;;;;;;11.98;95.71;101361.88;5051596;28;20461;-79
2022/03/12 09:06:16;;;;;;;9.05;5.57;;;;;;;12.26;94.29;101346.03;5056936;28;20040;-81
2022/03/12 09:08:43;;;;;;;9.25;4.93;;;;;;;12.28;95.02;101360.50;5056091;28;20067;-80
2022/03/12 09:11:08;;;;;;;10.45;5.00;;;;;;;12.24;94.38;101370.84;5071553;28;20087;-79
2022/03/12 09:13:34;;;;;;;12.70;4.93;;;;;;;12.68;92.60;101366.47;5062992;28;20053;-80
2022/03/12 09:15:59;;;;;;;13.18;5.35;;;;;;;12.67;91.77;101358.34;5069255;28;20046;-79
2022/03/12 09:18:26;;;;;;;7.18;4.97;;;;;;;12.53;91.96;101356.72;5047357;28;20065;-81
2022/03/12 09:20:52;;;;;;;11.55;5.45;;;;;;;12.76;90.58;101357.59;5049217;28;20033;-79
2022/03/12 09:23:20;;;;;;;8.80;5.57;;;;;;;12.66;90.72;101359.34;5037519;28;20033;-80
2022/03/12 09:25:49;;;;;;;7.85;4.28;;;;;;;12.40;91.05;101365.03;5052652;28;20025;-80
2022/03/12 09:28:18;;;;;;;11.10;5.00;;;;;;;12.41;91.05;101358.56;5034533;28;20170;-78
2022/03/12 09:30:50;;;;;;;10.27;5.63;;;;;;;12.46;92.07;101371.91;5045805;28;20526;-78
2022/03/12 09:33:17;;;;;;;11.20;4.75;;;;;;;12.38;91.04;101356.06;5050097;28;20494;-78
2022/03/12 09:35:42;;;;;;;14.63;4.93;;;;;;;12.30;92.51;101359.38;5047505;28;20038;-79
2022/03/12 09:38:08;;;;;;;8.40;4.63;;;;;;;12.38;91.01;101361.53;5037917;28;20045;-79
2022/03/12 09:40:36;;;;;;;8.05;4.50;;;;;;;12.36;89.96;101357.16;5035301;28;20033;-78
2022/03/12 09:43:03;;;;;;;12.18;5.20;;;;;;;12.48;91.07;101364.44;5059592;28;20029;-79
2022/03/12 09:45:29;;;;;;;8.93;4.85;;;;;;;12.69;89.12;101368.22;5046823;28;20393;-78
2022/03/12 09:47:54;;;;;;;6.78;4.18;;;;;;;13.00;86.77;101353.84;5058336;28;20049;-79
2022/03/12 09:50:23;;;;;;;6.18;3.88;;;;;;;12.84;87.46;101368.00;5051459;28;20033;-79
2022/03/12 09:52:49;;;;;;;7.75;4.47;;;;;;;12.67;88.10;101352.84;5061763;28;20048;-77
2022/03/12 09:55:16;;;;;;;6.72;4.15;;;;;;;12.68;87.97;101365.59;5056581;28;20092;-78
2022/03/12 09:57:43;;;;;;;7.70;5.00;;;;;;;12.65;87.64;101350.22;5076249;28;20037;-79
2022/03/12 10:00:09;;;;;;;8.50;4.50;;;;;;;12.90;87.41;101355.63;5075073;28;20055;-79
2022/03/12 10:02:36;;;;;;;12.15;4.40;;;;;;;13.15;85.92;101362.72;5064607;28;20060;-79
2022/03/12 10:05:03;;;;;;;9.90;4.15;;;;;;;13.15;85.10;101365.47;5055033;28;20033;-79
2022/03/12 10:07:29;;;;;;;6.38;4.20;;;;;;;13.08;85.32;101370.59;5060650;28;20052;-79
2022/03/12 10:09:55;;;;;;;8.48;4.00;;;;;;;12.86;85.83;101375.09;5035058;28;20033;-79
2022/03/12 10:12:20;;;;;;;11.48;4.50;;;;;;;12.71;87.83;101370.84;5044514;28;20386;-80
2022/03/12 10:14:48;;;;;;;8.77;5.00;;;;;;;12.92;87.83;101379.25;5059060;28;20025;-79
2022/03/12 10:17:15;;;;;;;13.07;5.75;;;;;;;12.61;88.02;101376.19;5058274;28;20037;-79
2022/03/12 10:19:44;;;;;;;9.43;5.25;;;;;;;12.43;89.05;101375.78;5054189;28;20086;-79
2022/03/12 10:22:11;;;;;;;8.65;5.22;;;;;;;12.48;89.14;101375.44;5062178;28;20037;-80
2022/03/12 10:24:37;;;;;;;10.57;5.40;;;;;;;12.65;89.39;101388.69;5083069;28;20024;-78
2022/03/12 10:27:06;;;;;;;9.70;4.13;;;;;;;12.72;88.26;101380.81;5040868;28;20044;-79
2022/03/12 10:29:31;;;;;;;9.40;5.07;;;;;;;12.58;90.26;101381.94;5061193;28;20070;-79
2022/03/12 10:31:57;;;;;;;11.00;5.47;;;;;;;12.61;89.77;101386.28;5053544;28;20033;-78
2022/03/12 10:34:25;;;;;;;10.43;5.00;;;;;;;12.59;89.29;101375.44;5042345;28;20040;-78
2022/03/12 10:36:54;;;;;;;13.95;5.15;;;;;;;12.43;90.27;101373.03;5050365;28;20057;-78
2022/03/12 10:39:34;;;;;;;10.43;5.20;;;;;;;12.46;90.55;101374.66;5077269;28;20082;-78
2022/03/12 10:42:02;;;;;;;12.05;5.43;;;;;;;12.67;89.55;101372.97;5071332;28;20422;-80
2022/03/12 10:44:39;;;;;;;15.23;5.22;;;;;;;12.62;89.84;101390.81;5077387;28;20051;-79
2022/03/12 10:47:22;;;;;;;11.27;5.28;;;;;;;12.78;89.88;101391.31;5059266;28;20037;-80
2022/03/12 10:50:00;;;;;;;14.90;4.87;;;;;;;13.02;88.28;101379.38;5055336;28;20511;-80
2022/03/12 10:52:29;;;;;;;12.52;4.75;;;;;;;13.12;88.57;101384.97;5076569;28;20307;-79
2022/03/12 10:54:57;;;;;;;8.93;4.50;;;;;;;13.00;87.49;101381.34;5057967;28;20035;-79
2022/03/12 10:57:22;;;;;;;13.60;5.20;;;;;;;12.95;88.27;101378.97;5062210;28;20025;-78
2022/03/12 10:59:55;;;;;;;12.13;4.93;;;;;;;13.12;86.99;101385.88;5059027;28;20037;-78
2022/03/12 11:02:21;;;;;;;10.87;6.00;;;;;;;13.16;86.51;101383.72;5059306;28;20037;-80
2022/03/12 11:04:46;;;;;;;9.43;4.28;;;;;;;13.49;86.29;101382.84;5074825;28;20288;-79
2022/03/12 11:07:26;;;;;;;7.30;4.60;;;;;;;13.68;84.49;101373.06;5059366;28;20049;-78
2022/03/12 11:09:56;;;;;;;9.25;5.38;;;;;;;13.58;84.47;101376.59;5058876;28;20378;-79
2022/03/12 11:12:30;;;;;;;11.07;4.63;;;;;;;14.13;83.01;101376.56;5048647;28;20112;-79
2022/03/12 11:15:15;;;;;;;12.38;5.10;;;;;;;13.91;82.25;101376.63;5059179;28;20033;-79
2022/03/12 11:17:48;;;;;;;10.43;5.07;;;;;;;14.40;80.75;101380.66;5057966;28;20048;-79
2022/03/12 11:20:27;;;;;;;7.85;4.28;;;;;;;14.07;80.98;101379.81;5057796;28;20045;-79
2022/03/12 11:23:08;;;;;;;9.80;4.63;;;;;;;14.41;78.52;101378.78;5059695;28;20057;-79